This is the latest recevied weather packets stored in our database for station/object HA2SKA-1. If no packets are shown the sender has not sent any weather packets the latest 10 day(s).
| Time | Temp. | Humidity | Pressure | Rain* | Wind** | Luminosity | Snow |
|---|---|---|---|---|---|---|---|
| 1788531616 | 33.89° C | 40% | 1018.8 hPa | - | - | - | - |
| 1788530716 | 34.44° C | 39% | 1018.8 hPa | - | - | - | - |
| 1788529816 | 33.33° C | 40% | 1018.9 hPa | - | - | - | - |
| 1788528916 | 33.33° C | 40% | 1019.1 hPa | - | - | - | - |
| 1788528016 | 33.89° C | 39% | 1019.3 hPa | - | - | - | - |
| 1788527115 | 34.44° C | 38% | 1019.6 hPa | - | - | - | - |
| 1788526215 | 33.33° C | 42% | 1019.6 hPa | - | - | - | - |
| 1788525315 | 32.78° C | 43% | 1019.7 hPa | - | - | - | - |
| 1788524415 | 33.33° C | 43% | 1020 hPa | - | - | - | - |
| 1788523515 | 32.22° C | 44% | 1020 hPa | - | - | - | - |
| 1788522615 | 32.78° C | 44% | 1020.3 hPa | - | - | - | - |
| 1788521715 | 34.44° C | 39% | 1020.6 hPa | - | - | - | - |
| 1788520815 | 32.78° C | 40% | 1020.7 hPa | - | - | - | - |
| 1788519915 | 34.44° C | 38% | 1020.9 hPa | - | - | - | - |
| 1788519015 | 32.78° C | 39% | 1021 hPa | - | - | - | - |
| 1788518114 | 33.89° C | 38% | 1021.2 hPa | - | - | - | - |
| 1788517214 | 33.33° C | 40% | 1021.2 hPa | - | - | - | - |
| 1788516314 | 32.22° C | 40% | 1021.5 hPa | - | - | - | - |
| 1788515414 | 34.44° C | 39% | 1021.6 hPa | - | - | - | - |
| 1788514514 | 33.33° C | 40% | 1021.8 hPa | - | - | - | - |
| 1788513614 | 32.78° C | 41% | 1021.9 hPa | - | - | - | - |
| 1788512714 | 32.78° C | 41% | 1021.9 hPa | - | - | - | - |
| 1788511814 | 32.22° C | 43% | 1022.3 hPa | - | - | - | - |
| 1788510914 | 32.22° C | 45% | 1022.3 hPa | - | - | - | - |
| 1788510014 | 30° C | 49% | 1022.3 hPa | - | - | - | - |
* Rain since midnight (hover to see other rain measurements)
** Current wind speed in m/s (hover to see current wind gust speed)